createdAt,value
2023-01-29T00:02:16.033Z,98296.00
2023-01-29T00:05:16.670Z,98301.19
2023-01-29T00:08:07.203Z,98296.00
2023-01-29T00:10:52.629Z,98291.63
2023-01-29T00:13:37.947Z,98283.84
2023-01-29T00:16:23.185Z,98287.13
2023-01-29T00:19:08.761Z,98282.06
2023-01-29T00:21:54.154Z,98286.31
2023-01-29T00:24:39.482Z,98288.09
2023-01-29T00:27:24.860Z,98283.00
2023-01-29T00:30:13.719Z,98284.91
2023-01-29T00:32:59.142Z,98281.47
2023-01-29T00:35:46.290Z,98284.91
2023-01-29T00:38:32.231Z,98271.09
2023-01-29T00:41:36.261Z,98275.47
2023-01-29T00:44:40.270Z,98276.41
2023-01-29T00:47:33.675Z,98274.75
2023-01-29T00:50:19.668Z,98262.84
2023-01-29T00:53:05.686Z,98260.38
2023-01-29T00:55:51.378Z,98270.38
2023-01-29T00:58:36.855Z,98263.31
2023-01-29T01:01:42.807Z,98257.28
2023-01-29T01:04:29.338Z,98259.91
2023-01-29T01:07:14.674Z,98260.13
2023-01-29T01:10:19.048Z,98269.69
2023-01-29T01:13:06.914Z,98264.63
2023-01-29T01:15:53.411Z,98264.88
2023-01-29T01:18:38.888Z,98265.69
2023-01-29T01:21:24.248Z,98265.56
2023-01-29T01:24:09.444Z,98252.69
2023-01-29T01:26:55.333Z,98262.13
2023-01-29T01:29:41.079Z,98263.94
2023-01-29T01:32:26.666Z,98253.41
2023-01-29T01:35:14.842Z,98238.78
2023-01-29T01:38:00.587Z,98235.38
2023-01-29T01:40:46.517Z,98234.41
2023-01-29T01:44:03.280Z,98233.72
2023-01-29T01:46:49.012Z,98235.50
2023-01-29T01:49:34.468Z,98233.94
2023-01-29T01:52:21.107Z,98235.84
2023-01-29T01:55:07.635Z,98235.84
2023-01-29T01:58:00.842Z,98240.09
2023-01-29T02:00:46.632Z,98234.06
2023-01-29T02:03:56.865Z,98233.94
2023-01-29T02:07:02.413Z,98233.94
2023-01-29T02:09:56.878Z,98231.34
2023-01-29T02:12:45.494Z,98248.56
2023-01-29T02:15:31.001Z,98248.56
2023-01-29T02:18:19.228Z,98246.91
2023-01-29T02:21:25.359Z,98249.53
2023-01-29T02:24:46.024Z,98246.81
2023-01-29T02:28:05.935Z,98257.22
2023-01-29T02:31:16.819Z,98250.22
2023-01-29T02:34:21.079Z,98244.91
2023-01-29T02:37:13.518Z,98239.84
2023-01-29T02:40:16.154Z,98242.44
2023-01-29T02:43:27.981Z,98241.50
2023-01-29T02:46:34.938Z,98238.91
2023-01-29T02:49:36.793Z,98236.53
2023-01-29T02:52:36.744Z,98234.91
2023-01-29T02:55:44.209Z,98236.81
2023-01-29T02:58:37.812Z,98229.81
2023-01-29T03:01:32.104Z,98229.00
2023-01-29T03:04:26.249Z,98225.59
2023-01-29T03:07:38.363Z,98232.56
2023-01-29T03:10:45.864Z,98219.69
2023-01-29T03:13:49.733Z,98227.34
2023-01-29T03:16:50.734Z,98233.50
2023-01-29T03:19:41.819Z,98241.53
2023-01-29T03:22:39.872Z,98236.34
2023-01-29T03:25:46.944Z,98244.22
2023-01-29T03:28:53.768Z,98247.81
2023-01-29T03:31:58.317Z,98248.63
2023-01-29T03:34:51.671Z,98256.28
2023-01-29T03:37:43.139Z,98263.97
2023-01-29T03:40:58.467Z,98262.03
2023-01-29T03:43:56.648Z,98264.66
2023-01-29T03:47:12.689Z,98269.75
2023-01-29T03:50:10.391Z,98274.94
2023-01-29T03:53:05.790Z,98266.16
2023-01-29T03:56:37.400Z,98263.56
2023-01-29T03:59:27.780Z,98263.47
2023-01-29T04:02:42.650Z,98256.63
2023-01-29T04:05:38.005Z,98262.75
2023-01-29T04:08:31.206Z,98265.34
2023-01-29T04:11:21.527Z,98263.47
2023-01-29T04:14:07.729Z,98256.50
2023-01-29T04:16:57.368Z,98257.31
2023-01-29T04:20:09.808Z,98246.25
2023-01-29T04:22:58.449Z,98242.94
2023-01-29T04:25:53.397Z,98245.66
2023-01-29T04:28:52.188Z,98245.78
2023-01-29T04:31:58.063Z,98242.22
2023-01-29T04:35:10.829Z,98250.97
2023-01-29T04:38:08.333Z,98243.41
2023-01-29T04:41:16.888Z,98249.56
2023-01-29T04:44:16.819Z,98242.72
2023-01-29T04:47:05.361Z,98235.75
2023-01-29T04:49:50.685Z,98232.22
2023-01-29T04:52:56.591Z,98221.00
2023-01-29T04:55:58.688Z,98216.06
2023-01-29T04:58:54.454Z,98221.25
2023-01-29T05:01:40.038Z,98220.56
2023-01-29T05:04:27.010Z,98221.50
2023-01-29T05:07:17.365Z,98212.91
2023-01-29T05:10:08.286Z,98207.69
2023-01-29T05:13:06.959Z,98201.00
2023-01-29T05:16:08.323Z,98209.72
2023-01-29T05:18:54.232Z,98209.72
2023-01-29T05:21:41.856Z,98208.06
2023-01-29T05:24:27.471Z,98210.66
2023-01-29T05:27:44.214Z,98216.66
2023-01-29T05:30:30.039Z,98210.66
2023-01-29T05:33:20.636Z,98202.16
2023-01-29T05:36:09.175Z,98203.09
2023-01-29T05:38:54.420Z,98200.50
2023-01-29T05:41:43.475Z,98197.91
2023-01-29T05:44:29.073Z,98196.28
2023-01-29T05:47:14.561Z,98194.63
2023-01-29T05:49:59.706Z,98198.88
2023-01-29T05:52:45.233Z,98191.09
2023-01-29T05:55:30.641Z,98180.94
2023-01-29T05:58:16.182Z,98187.09
2023-01-29T06:01:19.889Z,98183.91
2023-01-29T06:04:05.414Z,98187.44
2023-01-29T06:06:52.644Z,98184.03
2023-01-29T06:09:42.121Z,98184.16
2023-01-29T06:12:28.104Z,98181.69
2023-01-29T06:15:15.583Z,98173.91
2023-01-29T06:18:01.051Z,98160.94
2023-01-29T06:20:46.395Z,98154.91
2023-01-29T06:23:31.762Z,98155.75
2023-01-29T06:26:17.401Z,98155.75
2023-01-29T06:29:02.661Z,98145.38
2023-01-29T06:31:48.135Z,98150.56
2023-01-29T06:34:33.890Z,98152.19
2023-01-29T06:37:22.536Z,98150.56
2023-01-29T06:40:08.668Z,98146.06
2023-01-29T06:42:53.865Z,98152.91
2023-01-29T06:45:39.249Z,98155.25
2023-01-29T06:48:27.777Z,98160.31
2023-01-29T06:51:14.691Z,98148.16
2023-01-29T06:54:00.468Z,98156.66
2023-01-29T06:56:45.788Z,98153.34
2023-01-29T06:59:31.310Z,98155.81
2023-01-29T07:02:16.796Z,98156.38
2023-01-29T07:05:02.067Z,98164.88
2023-01-29T07:07:47.499Z,98169.00
2023-01-29T07:10:33.042Z,98169.84
2023-01-29T07:13:18.285Z,98166.28
2023-01-29T07:16:05.165Z,98172.31
2023-01-29T07:18:51.232Z,98170.41
2023-01-29T07:21:37.494Z,98175.47
2023-01-29T07:24:26.268Z,98172.88
2023-01-29T07:27:11.606Z,98181.38
2023-01-29T07:29:56.840Z,98192.44
2023-01-29T07:32:42.263Z,98192.31
2023-01-29T07:35:27.597Z,98189.84
2023-01-29T07:38:13.122Z,98196.97
2023-01-29T07:40:58.537Z,98197.78
2023-01-29T07:43:43.836Z,98200.25
2023-01-29T07:46:29.317Z,98198.34
2023-01-29T07:49:16.851Z,98203.28
2023-01-29T07:52:02.526Z,98201.53
2023-01-29T07:54:47.944Z,98203.84
2023-01-29T07:57:33.236Z,98221.09
2023-01-29T08:00:19.217Z,98234.06
2023-01-29T08:03:05.430Z,98237.50
2023-01-29T08:05:51.153Z,98240.09
2023-01-29T08:08:36.555Z,98229.59
2023-01-29T08:11:21.801Z,98231.94
2023-01-29T08:14:09.613Z,98229.91
2023-01-29T08:16:54.941Z,98243.88
2023-01-29T08:19:40.316Z,98247.41
2023-01-29T08:22:25.741Z,98255.19
2023-01-29T08:25:11.827Z,98252.59
2023-01-29T08:27:58.839Z,98251.66
2023-01-29T08:30:44.722Z,98252.34
2023-01-29T08:33:38.954Z,98258.25
2023-01-29T08:36:24.593Z,98257.75
2023-01-29T08:39:10.339Z,98265.53
2023-01-29T08:41:55.564Z,98274.03
2023-01-29T08:44:40.890Z,98284.03
2023-01-29T08:47:27.468Z,98286.28
2023-01-29T08:50:14.280Z,98290.53
2023-01-29T08:53:01.525Z,98286.97
2023-01-29T08:55:47.167Z,98286.13
2023-01-29T08:58:33.036Z,98275.66
2023-01-29T09:01:18.416Z,98263.34
2023-01-29T09:04:03.793Z,98271.72
2023-01-29T09:06:49.224Z,98269.81
2023-01-29T09:09:34.588Z,98263.09
2023-01-29T09:12:19.976Z,98254.22
2023-01-29T09:15:05.683Z,98259.50
2023-01-29T09:17:51.480Z,98258.19
2023-01-29T09:20:38.234Z,98251.91
2023-01-29T09:23:24.385Z,98251.41
2023-01-29T09:26:09.880Z,98246.66
2023-01-29T09:28:57.689Z,98236.59
2023-01-29T09:31:43.218Z,98237.69
2023-01-29T09:34:28.471Z,98242.28
2023-01-29T09:37:13.872Z,98239.97
2023-01-29T09:39:59.297Z,98243.72
2023-01-29T09:42:53.706Z,98245.78
2023-01-29T09:45:50.172Z,98239.41
2023-01-29T09:48:36.904Z,98235.56
2023-01-29T09:51:41.819Z,98233.09
2023-01-29T09:54:48.906Z,98231.59
2023-01-29T09:57:44.404Z,98245.84
2023-01-29T10:00:37.520Z,98238.91
2023-01-29T10:03:53.934Z,98231.25
2023-01-29T10:07:10.407Z,98230.06
2023-01-29T10:10:15.620Z,98232.66
2023-01-29T10:13:05.723Z,98226.06
2023-01-29T10:16:23.269Z,98223.38
2023-01-29T10:19:25.551Z,98225.00
2023-01-29T10:22:37.967Z,98228.69
2023-01-29T10:25:23.888Z,98239.09
2023-01-29T10:28:35.318Z,98228.56
2023-01-29T10:31:32.768Z,98224.88
2023-01-29T10:34:26.102Z,98222.94
2023-01-29T10:37:19.464Z,98200.78
2023-01-29T10:40:22.016Z,98195.56
2023-01-29T10:43:16.547Z,98183.94
2023-01-29T10:46:08.198Z,98177.50
2023-01-29T10:49:22.926Z,98183.94
2023-01-29T10:52:43.036Z,98185.88
2023-01-29T10:55:40.730Z,98181.78
2023-01-29T10:58:34.227Z,98172.72
2023-01-29T11:01:19.729Z,98165.19
2023-01-29T11:04:11.835Z,98159.31
2023-01-29T11:06:59.320Z,98156.00
2023-01-29T11:09:58.393Z,98162.16
2023-01-29T11:12:45.855Z,98162.84
2023-01-29T11:15:36.006Z,98163.97
2023-01-29T11:18:21.640Z,98155.59
2023-01-29T11:21:08.122Z,98146.94
2023-01-29T11:24:17.080Z,98146.81
2023-01-29T11:27:13.256Z,98146.81
2023-01-29T11:29:59.179Z,98145.56
2023-01-29T11:32:48.035Z,98137.19
2023-01-29T11:35:33.466Z,98138.69
2023-01-29T11:38:24.810Z,98135.41
2023-01-29T11:41:22.472Z,98123.47
2023-01-29T11:44:19.114Z,98121.97
2023-01-29T11:47:27.822Z,98104.69
2023-01-29T11:50:22.229Z,98097.88
2023-01-29T11:53:23.497Z,98087.16
2023-01-29T11:56:30.256Z,98087.84
2023-01-29T11:59:37.350Z,98083.84
2023-01-29T12:02:43.614Z,98082.63
2023-01-29T12:05:29.334Z,98081.50
2023-01-29T12:08:18.033Z,98078.34
2023-01-29T12:11:23.804Z,98071.59
2023-01-29T12:14:33.469Z,98080.75
2023-01-29T12:17:26.737Z,98079.13
2023-01-29T12:20:22.234Z,98080.38
2023-01-29T12:23:41.740Z,98075.16
2023-01-29T12:26:36.196Z,98071.03
2023-01-29T12:29:32.477Z,98062.63
2023-01-29T12:32:57.310Z,98057.81
2023-01-29T12:35:47.527Z,98057.81
2023-01-29T12:38:33.169Z,98049.22
2023-01-29T12:41:31.144Z,98049.09
2023-01-29T12:44:43.650Z,98049.25
2023-01-29T12:47:41.008Z,98039.47
2023-01-29T12:50:29.764Z,98035.91
2023-01-29T12:53:30.744Z,98048.53
2023-01-29T12:56:47.326Z,98040.44
2023-01-29T12:59:45.585Z,98033.28
2023-01-29T13:02:33.917Z,98031.94
2023-01-29T13:05:27.239Z,98021.13
2023-01-29T13:08:36.823Z,98022.34
2023-01-29T13:11:25.196Z,98031.44
2023-01-29T13:14:26.166Z,98033.34
2023-01-29T13:17:23.403Z,98037.31
2023-01-29T13:20:24.043Z,98038.69
2023-01-29T13:23:21.500Z,98043.63
2023-01-29T13:26:09.209Z,98027.13
2023-01-29T13:28:55.081Z,98027.00
2023-01-29T13:31:41.879Z,98028.63
2023-01-29T13:34:31.792Z,98020.38
2023-01-29T13:37:28.243Z,98018.69
2023-01-29T13:40:48.503Z,98015.66
2023-01-29T13:43:41.095Z,98015.88
2023-01-29T13:46:28.407Z,98010.66
2023-01-29T13:49:27.816Z,98013.16
2023-01-29T13:52:32.186Z,97998.91
2023-01-29T13:55:18.118Z,98002.78
2023-01-29T13:58:38.029Z,97997.84
2023-01-29T14:02:05.565Z,97999.50
2023-01-29T14:04:51.303Z,97990.97
2023-01-29T14:07:45.850Z,97996.06
2023-01-29T14:10:33.153Z,97998.69
2023-01-29T14:13:18.580Z,97986.28
2023-01-29T14:16:03.924Z,97986.97
2023-01-29T14:19:03.118Z,97980.97
2023-01-29T14:21:50.670Z,97986.44
2023-01-29T14:24:36.482Z,97992.41
2023-01-29T14:27:27.371Z,97988.56
2023-01-29T14:30:18.337Z,97982.03
2023-01-29T14:33:05.635Z,97988.47
2023-01-29T14:35:52.246Z,97981.91
2023-01-29T14:38:40.180Z,97982.88
2023-01-29T14:41:30.837Z,97979.56
2023-01-29T14:44:44.266Z,97975.19
2023-01-29T14:47:32.706Z,97977.66
2023-01-29T14:50:33.532Z,97976.44
2023-01-29T14:53:35.151Z,97969.19
2023-01-29T14:56:40.899Z,97965.66
2023-01-29T14:59:32.159Z,97966.53
2023-01-29T15:02:27.068Z,97965.47
2023-01-29T15:05:19.689Z,97956.56
2023-01-29T15:08:14.449Z,97964.97
2023-01-29T15:11:25.968Z,97954.41
2023-01-29T15:14:26.136Z,97953.34
2023-01-29T15:17:30.399Z,97957.03
2023-01-29T15:20:45.279Z,97957.59
2023-01-29T15:23:34.744Z,97959.25
2023-01-29T15:26:26.924Z,97957.22
2023-01-29T15:29:23.617Z,97951.72
2023-01-29T15:32:20.354Z,97947.22
2023-01-29T15:35:16.224Z,97939.28
2023-01-29T15:38:06.463Z,97941.78
2023-01-29T15:41:14.987Z,97940.69
2023-01-29T15:44:00.970Z,97932.47
2023-01-29T15:46:54.200Z,97937.53
2023-01-29T15:49:40.340Z,97925.06
2023-01-29T15:52:36.192Z,97931.78
2023-01-29T15:55:23.788Z,97927.94
2023-01-29T15:58:17.446Z,97924.78
2023-01-29T16:01:03.945Z,97920.81
2023-01-29T16:03:50.148Z,97931.59
2023-01-29T16:06:40.093Z,97936.53
2023-01-29T16:09:28.066Z,97933.50
2023-01-29T16:12:14.092Z,97936.22
2023-01-29T16:15:01.020Z,97934.88
2023-01-29T16:17:46.503Z,97936.91
2023-01-29T16:20:45.204Z,97929.38
2023-01-29T16:23:41.883Z,97927.03
2023-01-29T16:26:31.644Z,97923.06
2023-01-29T16:29:23.114Z,97917.28
2023-01-29T16:32:09.376Z,97915.13
2023-01-29T16:35:00.198Z,97916.47
2023-01-29T16:37:51.262Z,97909.75
2023-01-29T16:40:38.882Z,97913.44
2023-01-29T16:43:28.401Z,97912.88
2023-01-29T16:46:37.741Z,97915.63
2023-01-29T16:49:25.887Z,97909.59
2023-01-29T16:52:19.959Z,97906.44
2023-01-29T16:55:11.788Z,97901.38
2023-01-29T16:57:57.109Z,97900.69
2023-01-29T17:00:48.719Z,97899.03
2023-01-29T17:03:35.714Z,97903.56
2023-01-29T17:06:24.649Z,97903.56
2023-01-29T17:09:21.674Z,97896.97
2023-01-29T17:12:09.957Z,97903.94
2023-01-29T17:15:00.995Z,97905.03
2023-01-29T17:17:49.061Z,97903.13
2023-01-29T17:20:34.528Z,97899.69
2023-01-29T17:23:21.012Z,97891.09
2023-01-29T17:26:14.776Z,97888.50
2023-01-29T17:29:00.019Z,97900.66
2023-01-29T17:31:45.331Z,97903.38
2023-01-29T17:34:30.804Z,97901.59
2023-01-29T17:37:16.962Z,97900.78
2023-01-29T17:40:05.178Z,97897.47
2023-01-29T17:42:51.159Z,97890.53
2023-01-29T17:45:36.428Z,97891.63
2023-01-29T17:48:23.047Z,97894.22
2023-01-29T17:51:12.616Z,97890.22
2023-01-29T17:53:58.774Z,97896.34
2023-01-29T17:56:44.091Z,97889.09
2023-01-29T17:59:33.357Z,97887.47
2023-01-29T18:02:29.539Z,97887.19
2023-01-29T18:05:17.217Z,97881.88
2023-01-29T18:08:03.081Z,97891.16
2023-01-29T18:10:48.477Z,97895.31
2023-01-29T18:13:36.227Z,97885.72
2023-01-29T18:16:22.760Z,97885.72
2023-01-29T18:19:16.962Z,97871.25
2023-01-29T18:22:02.127Z,97874.53
2023-01-29T18:24:47.615Z,97873.44
2023-01-29T18:27:33.042Z,97862.78
2023-01-29T18:30:18.646Z,97870.44
2023-01-29T18:33:04.090Z,97863.63
2023-01-29T18:35:49.699Z,97863.63
2023-01-29T18:38:35.398Z,97867.31
2023-01-29T18:41:20.603Z,97855.28
2023-01-29T18:44:05.973Z,97859.53
2023-01-29T18:46:51.893Z,97859.25
2023-01-29T18:49:39.161Z,97867.97
2023-01-29T18:52:26.316Z,97867.97
2023-01-29T18:55:12.201Z,97861.84
2023-01-29T18:58:26.190Z,97872.09
2023-01-29T19:01:09.073Z,97874.56
2023-01-29T19:03:56.145Z,97871.97
2023-01-29T19:06:41.816Z,97871.00
2023-01-29T19:09:27.304Z,97873.50
2023-01-29T19:12:13.352Z,97874.16
2023-01-29T19:14:59.879Z,97870.75
2023-01-29T19:17:45.146Z,97876.66
2023-01-29T19:20:30.537Z,97883.59
2023-01-29T19:23:15.772Z,97885.38
2023-01-29T19:26:01.040Z,97891.38
2023-01-29T19:28:46.549Z,97883.34
2023-01-29T19:31:32.031Z,97890.19
2023-01-29T19:34:17.251Z,97884.16
2023-01-29T19:37:02.717Z,97880.84
2023-01-29T19:39:48.082Z,97884.16
2023-01-29T19:42:34.944Z,97881.69
2023-01-29T19:45:49.707Z,97881.69
2023-01-29T19:48:30.948Z,97877.31
2023-01-29T19:51:16.629Z,97876.38
2023-01-29T19:54:02.580Z,97872.97
2023-01-29T19:56:47.850Z,97863.66
2023-01-29T19:59:33.204Z,97868.84
2023-01-29T20:02:18.695Z,97855.03
2023-01-29T20:05:05.599Z,97854.09
2023-01-29T20:07:51.059Z,97846.16
2023-01-29T20:10:36.805Z,97853.00
2023-01-29T20:13:22.347Z,97856.53
2023-01-29T20:16:08.251Z,97842.22
2023-01-29T20:18:53.461Z,97839.22
2023-01-29T20:21:39.200Z,97854.66
2023-01-29T20:24:26.472Z,97844.16
2023-01-29T20:27:12.542Z,97830.91
2023-01-29T20:30:00.786Z,97836.66
2023-01-29T20:32:46.030Z,97834.63
2023-01-29T20:35:32.569Z,97836.25
2023-01-29T20:38:18.196Z,97830.22
2023-01-29T20:41:12.791Z,97828.47
2023-01-29T20:44:01.691Z,97830.09
2023-01-29T20:46:47.330Z,97828.19
2023-01-29T20:49:32.565Z,97820.81
2023-01-29T20:52:18.171Z,97817.94
2023-01-29T20:55:06.438Z,97809.88
2023-01-29T20:58:05.761Z,97806.31
2023-01-29T21:00:52.349Z,97801.66
2023-01-29T21:03:39.393Z,97791.03
2023-01-29T21:06:25.522Z,97787.59
2023-01-29T21:09:10.880Z,97775.44
2023-01-29T21:11:56.340Z,97767.50
2023-01-29T21:14:41.679Z,97764.75
2023-01-29T21:17:28.157Z,97765.28
2023-01-29T21:20:14.102Z,97755.75
2023-01-29T21:23:01.751Z,97759.94
2023-01-29T21:25:48.424Z,97759.84
2023-01-29T21:28:33.984Z,97751.06
2023-01-29T21:31:19.173Z,97759.00
2023-01-29T21:34:05.232Z,97757.25
2023-01-29T21:36:50.950Z,97747.50
2023-01-29T21:39:36.544Z,97755.03
2023-01-29T21:42:40.654Z,97759.28
2023-01-29T21:45:29.316Z,97763.63
2023-01-29T21:48:14.532Z,97756.69
2023-01-29T21:51:00.389Z,97761.03
2023-01-29T21:53:45.770Z,97761.72
2023-01-29T21:56:31.322Z,97762.53
2023-01-29T21:59:16.747Z,97764.19
2023-01-29T22:02:02.310Z,97764.03
2023-01-29T22:04:52.261Z,97765.69
2023-01-29T22:07:38.551Z,97768.97
2023-01-29T22:10:23.990Z,97768.03
2023-01-29T22:13:09.668Z,97764.59
2023-01-29T22:15:55.042Z,97767.88
2023-01-29T22:18:40.396Z,97765.00
2023-01-29T22:21:25.811Z,97768.56
2023-01-29T22:24:11.047Z,97760.63
2023-01-29T22:26:56.453Z,97760.63
2023-01-29T22:29:42.203Z,97749.13
2023-01-29T22:32:27.802Z,97765.41
2023-01-29T22:35:17.439Z,97762.50
2023-01-29T22:38:03.132Z,97758.69
2023-01-29T22:40:55.738Z,97752.22
2023-01-29T22:43:41.334Z,97750.31
2023-01-29T22:46:26.833Z,97758.50
2023-01-29T22:49:12.139Z,97730.59
2023-01-29T22:52:12.822Z,97715.66
2023-01-29T22:54:58.244Z,97720.59
2023-01-29T22:57:43.884Z,97722.88
2023-01-29T23:00:29.304Z,97715.09
2023-01-29T23:03:14.712Z,97707.16
2023-01-29T23:06:00.047Z,97696.59
2023-01-29T23:08:47.277Z,97683.59
2023-01-29T23:11:32.679Z,97674.00
2023-01-29T23:14:18.262Z,97664.44
2023-01-29T23:17:03.548Z,97671.41
2023-01-29T23:19:48.926Z,97671.41
2023-01-29T23:22:34.230Z,97662.00
2023-01-29T23:25:19.672Z,97657.59
2023-01-29T23:28:05.220Z,97661.69
2023-01-29T23:30:52.196Z,97650.31
2023-01-29T23:33:37.879Z,97632.13
2023-01-29T23:36:23.936Z,97626.75
2023-01-29T23:39:09.706Z,97617.19
2023-01-29T23:41:55.439Z,97604.31
2023-01-29T23:44:40.884Z,97602.69
2023-01-29T23:47:26.603Z,97594.06
2023-01-29T23:50:12.290Z,97589.81
2023-01-29T23:52:57.868Z,97578.47
2023-01-29T23:55:46.061Z,97566.56
2023-01-29T23:58:33.753Z,97548.66
